If you wish to contribute or participate in the discussions about articles you are invited to join SKYbrary as a registered user

 Actions

McGrath Airport

From SKYbrary Wiki

PAMC
Airport
ICAO: PAMC – IATA: MCG
Summary
Name McGrath Airport
Region North America
Territory Alaska US.gif
Location , Alaska
Serving Mcgrath
Elevation 103.937 m
341 ft
341 ft103.937 m
Type medium airport
Coordinates 62° 57' 10.44" N, 155° 36' 21.60" W
Runways
Designator Length Width Surface ROPS
5/23 610 m2,001.312 ft
18 m59.055 ft
GRVL-G /
16/34 1809 m5,935.039 ft
30 m98.425 ft
ASPH-G yes/yes


METAR
Observation PAMC 162153Z AUTO VRB03KT 10SM CLR M04/M07 A2922 RMK AO2 SLP902 T10441072 TSNO $
Station McGrath, McGrath Airport
Date/Time 16 October 2019 21:53:00
Wind direction °
Wind speed 03 kts
Lowest cloud amount n/a
Temperature
Dew point
Humidity 80%
QNH hPa
Weather condition n/a